Terminal Aerodrome Forecast
Issued by NWS

Home | Current Version | Previous Version | Text Only | Print | Product List | Glossary On
Versions: 1 2 3 4 5 6 7 8 9 10 11 12 13 14 15 16 17
000
FTUS43 KBIS 251400 AAA
TAFJMS
TAF AMD
KJMS 251412Z 2514/2612 28012G18KT P6SM SCT003 OVC007
      TEMPO 2514/2516 SCT007 BKN030
     FM251600 31015KT P6SM SCT030
     FM252000 30013KT P6SM SKC
     FM260100 29009KT P6SM SKC
     FM260500 24004KT P6SM SKC=

USA.gov is the U.S. government's official web portal to all federal, state and local government web resources and services.